createdAt,value
2022-11-30T00:02:18.330Z,100300.06
2022-11-30T00:14:54.412Z,100310.72
2022-11-30T00:32:43.660Z,100317.00
2022-11-30T00:36:53.536Z,100327.28
2022-11-30T00:58:20.261Z,100317.53
2022-11-30T01:01:55.407Z,100318.31
2022-11-30T01:16:44.072Z,100316.66
2022-11-30T01:47:55.438Z,100321.13
2022-11-30T02:23:09.521Z,100347.28
2022-11-30T02:32:02.353Z,100347.78
2022-11-30T21:38:00.808Z,100512.44
2022-11-30T21:40:28.449Z,100512.72
2022-11-30T21:42:55.517Z,100511.31
2022-11-30T21:52:52.495Z,100505.38
2022-11-30T21:55:21.014Z,100503.69
2022-11-30T21:57:48.644Z,100505.38
2022-11-30T22:00:19.975Z,100499.25
2022-11-30T22:51:46.497Z,100493.88
2022-11-30T23:05:14.772Z,100494.97
2022-11-30T23:07:42.136Z,100496.22
2022-11-30T23:10:10.082Z,100497.19
2022-11-30T23:12:58.598Z,100486.66
2022-11-30T23:15:25.579Z,100486.66
2022-11-30T23:17:53.608Z,100484.44
2022-11-30T23:20:22.787Z,100479.19
2022-11-30T23:22:50.853Z,100481.38
2022-11-30T23:25:18.629Z,100476.97
2022-11-30T23:27:46.735Z,100477.53
2022-11-30T23:30:14.756Z,100470.84
2022-11-30T23:32:43.347Z,100467.28
2022-11-30T23:35:10.975Z,100470.84
2022-11-30T23:37:39.799Z,100462.53
2022-11-30T23:40:08.721Z,100465.16
2022-11-30T23:42:37.140Z,100456.16
2022-11-30T23:45:10.252Z,100465.59
2022-11-30T23:47:38.748Z,100454.78
2022-11-30T23:50:08.533Z,100457.56
2022-11-30T23:52:36.103Z,100458.69
2022-11-30T23:55:04.515Z,100463.38
2022-11-30T23:57:31.933Z,100466.59
2022-11-30T23:59:58.910Z,100454.53
